LUKK/KIV METAR and TAF weather

Enter ICAO airport designator
Station Type Date Time Source
LUKK METAR 2019/06/26 06:00 UTC NOAA

LUKK 260600Z 36008KT 330V040 CAVOK 25/14 Q1025 R08/CLRD// NOSIG


Station Type Date Time Source
LUKK Decoded METAR 2019/06/26 06:00 UTC NOAA

Chisinau International Airport, Moldova (LUKK) 46-55-40N 028-55-51E
Jun 26, 2019 - 02:00 AM EDT / 2019.06.26 0600 UTC
Wind: from the N (360 degrees) at 9 MPH (8 KT) (direction variable):0
Visibility: greater than 7 mile(s):0
Temperature: 77 F (25 C)
Dew Point: 57 F (14 C)
Relative Humidity: 50%
Pressure (altimeter): 30.27 in. Hg (1025 hPa)
ob: LUKK 260600Z 36008KT 330V040 CAVOK 25/14 Q1025 R08/CLRD// NOSIG
cycle: 6

Station Type Date Time Source
LUKK TAF 2019/06/26 06:18 UTC NOAA

TAF LUKK 260520Z 2606/2706 03009KT CAVOK

Example: see airport list